Abidjan, Ivory Coast

2:04 AM GMT on October 26, 2014 (GMT +0000)
Felix Houphouet-Boigny | Change Station
CLOSE
Current Station
Airport
Location: Abidjan,
Elevation: 26 ft
Nearby Weather Stations

Elev 26 ft 5.26 °N, 3.93 °W | Updated 12 minutes ago

Light Rain
Light Rain
73 °F
Feels Like 73 °F
N
6
Wind Variable Wind from NE

Today
High -- | Low -- °F
--% Chance of Precip.
Yesterday
High -- | Low -- °F
Precip. -- in
6:00 AM 5:58 PM
Waxing Crescent, 5% visible
Pressure 29.86 in
Visibility 3.7 miles
Clouds Few 300 ft
Mostly Cloudy 1100 ft
Overcast 2000 ft
Dew Point 72 °F
Humidity 94%
Rainfall 0.00 in
Snow Depth Not available.
UV 0 out of 12
Pollen Not available.
Air Quality Not available.
Flu Activity Not available.
SPECI DIAP 260152Z 04005KT 360V080 6000 -RA FEW003 BKN011 OVC020 23/22 Q1011 TEMPO SCT011 BKN020

More Conditions Fewer Conditions

Pressure 29.86 in
Visibility 3.7 miles
Clouds Few 300 ft
Mostly Cloudy 1100 ft
Overcast 2000 ft
Dew Point 72 °F
Humidity 94%
Rainfall 0.00 in
Snow Depth Not available.
UV 0 out of 12
Pollen Not available.
Air Quality Not available.
Flu Activity Not available.
SPECI DIAP 260152Z 04005KT 360V080 6000 -RA FEW003 BKN011 OVC020 23/22 Q1011 TEMPO SCT011 BKN020

More Conditions Fewer Conditions

10-Day Weather Forecast

Almanac

Astronomy

Oct. 26, 2014 Rise Set
Actual Time 6:00 AM GMT 5:58 PM GMT
Civil Twilight 5:39 AM GMT 6:19 PM GMT
Nautical Twilight 5:15 AM GMT 6:44 PM GMT
Astronomical Twilight 4:50 AM GMT 7:08 PM GMT
Moon 8:06 AM GMT 8:18 PM GMT
Length of Visible Light 12h 39m
Length of Day
11h 57m
Tomorrow will be 0m 15s shorter.
Waxing Crescent, 5% of the Moon is Illuminated
Oct 25
Waxing Crescent
Oct 30
First Quarter
Nov 6
Full
Nov 14
Last Quarter
Nov 22
New

Yesterday's Extremes

Country Highs Country Lows

Community

WunderPhotos

Upload Photos

1,765,080 photos uploaded!

Nearby

Snow Depth

Not available.

Earthquake Activity

City Distance Mag. Time & Date
No recent earthquake activity has been reported nearby.
Minimum magnitude displayed is 2.5.

Coastal Water Temperatures

Place Temperature
No Stations Reporting

Nearby Weather Stations